sensor_id;sensor_type;location;lat;lon;timestamp;P1;durP1;ratioP1;P2;durP2;ratioP2
42134;SDS011;28312;43.460;11.810;2022-11-18T00:01:27;2.92;;;2.00;;
42134;SDS011;28312;43.460;11.810;2022-11-18T00:05:30;4.57;;;2.70;;
42134;SDS011;28312;43.460;11.810;2022-11-18T00:09:34;4.18;;;3.15;;
42134;SDS011;28312;43.460;11.810;2022-11-18T00:13:40;4.70;;;2.15;;
42134;SDS011;28312;43.460;11.810;2022-11-18T00:18:02;2.88;;;1.95;;
42134;SDS011;28312;43.460;11.810;2022-11-18T00:22:06;4.55;;;3.10;;
42134;SDS011;28312;43.460;11.810;2022-11-18T00:26:13;4.25;;;3.05;;
42134;SDS011;28312;43.460;11.810;2022-11-18T00:30:16;3.85;;;2.58;;
42134;SDS011;28312;43.460;11.810;2022-11-18T00:34:20;3.83;;;1.98;;
42134;SDS011;28312;43.460;11.810;2022-11-18T00:38:24;3.60;;;1.40;;
42134;SDS011;28312;43.460;11.810;2022-11-18T00:42:28;2.33;;;1.52;;
42134;SDS011;28312;43.460;11.810;2022-11-18T00:46:50;2.20;;;1.38;;
42134;SDS011;28312;43.460;11.810;2022-11-18T00:50:54;1.95;;;1.40;;
42134;SDS011;28312;43.460;11.810;2022-11-18T00:55:00;2.38;;;1.60;;
42134;SDS011;28312;43.460;11.810;2022-11-18T00:59:04;3.88;;;1.85;;
42134;SDS011;28312;43.460;11.810;2022-11-18T01:03:08;1.65;;;1.13;;
42134;SDS011;28312;43.460;11.810;2022-11-18T01:07:13;3.28;;;1.83;;
42134;SDS011;28312;43.460;11.810;2022-11-18T01:11:16;2.67;;;1.70;;
42134;SDS011;28312;43.460;11.810;2022-11-18T01:15:40;2.15;;;1.50;;
42134;SDS011;28312;43.460;11.810;2022-11-18T01:19:45;3.33;;;1.75;;
42134;SDS011;28312;43.460;11.810;2022-11-18T01:23:50;2.92;;;2.17;;
42134;SDS011;28312;43.460;11.810;2022-11-18T01:27:54;2.42;;;1.40;;
42134;SDS011;28312;43.460;11.810;2022-11-18T01:31:58;2.45;;;1.30;;
42134;SDS011;28312;43.460;11.810;2022-11-18T01:36:22;6.15;;;2.85;;
42134;SDS011;28312;43.460;11.810;2022-11-18T01:40:28;6.72;;;3.40;;
42134;SDS011;28312;43.460;11.810;2022-11-18T01:48:58;3.80;;;2.13;;
42134;SDS011;28312;43.460;11.810;2022-11-18T01:53:16;2.60;;;1.40;;
42134;SDS011;28312;43.460;11.810;2022-11-18T01:57:27;3.17;;;2.28;;
42134;SDS011;28312;43.460;11.810;2022-11-18T02:01:34;2.33;;;1.33;;
42134;SDS011;28312;43.460;11.810;2022-11-18T02:05:38;2.03;;;1.40;;
42134;SDS011;28312;43.460;11.810;2022-11-18T02:09:43;3.63;;;2.10;;
42134;SDS011;28312;43.460;11.810;2022-11-18T02:13:47;3.05;;;1.50;;
42134;SDS011;28312;43.460;11.810;2022-11-18T02:17:54;6.78;;;3.35;;
42134;SDS011;28312;43.460;11.810;2022-11-18T02:26:42;1.80;;;1.20;;
42134;SDS011;28312;43.460;11.810;2022-11-18T02:30:57;3.17;;;1.80;;
42134;SDS011;28312;43.460;11.810;2022-11-18T02:39:30;3.30;;;1.63;;
42134;SDS011;28312;43.460;11.810;2022-11-18T02:48:13;5.03;;;2.80;;
42134;SDS011;28312;43.460;11.810;2022-11-18T02:52:18;3.50;;;1.73;;
42134;SDS011;28312;43.460;11.810;2022-11-18T02:56:24;4.63;;;1.67;;
42134;SDS011;28312;43.460;11.810;2022-11-18T03:00:30;2.03;;;1.15;;
42134;SDS011;28312;43.460;11.810;2022-11-18T03:04:34;3.95;;;1.35;;
42134;SDS011;28312;43.460;11.810;2022-11-18T03:09:02;2.83;;;1.63;;
42134;SDS011;28312;43.460;11.810;2022-11-18T03:13:11;4.65;;;2.28;;
42134;SDS011;28312;43.460;11.810;2022-11-18T03:17:33;4.43;;;2.03;;
42134;SDS011;28312;43.460;11.810;2022-11-18T03:21:51;2.47;;;1.63;;
42134;SDS011;28312;43.460;11.810;2022-11-18T03:30:24;2.50;;;1.40;;
42134;SDS011;28312;43.460;11.810;2022-11-18T03:34:42;1.48;;;1.02;;
42134;SDS011;28312;43.460;11.810;2022-11-18T03:38:50;2.33;;;1.13;;
42134;SDS011;28312;43.460;11.810;2022-11-18T03:43:10;2.67;;;1.80;;
42134;SDS011;28312;43.460;11.810;2022-11-18T03:47:21;2.60;;;1.63;;
42134;SDS011;28312;43.460;11.810;2022-11-18T03:51:39;3.45;;;2.03;;
42134;SDS011;28312;43.460;11.810;2022-11-18T03:56:00;3.80;;;1.90;;
42134;SDS011;28312;43.460;11.810;2022-11-18T04:00:18;6.43;;;2.08;;
42134;SDS011;28312;43.460;11.810;2022-11-18T04:04:24;3.55;;;2.45;;
42134;SDS011;28312;43.460;11.810;2022-11-18T04:08:33;5.85;;;2.83;;
42134;SDS011;28312;43.460;11.810;2022-11-18T04:12:45;2.72;;;1.65;;
42134;SDS011;28312;43.460;11.810;2022-11-18T04:17:08;2.78;;;1.58;;
42134;SDS011;28312;43.460;11.810;2022-11-18T04:21:13;3.38;;;1.50;;
42134;SDS011;28312;43.460;11.810;2022-11-18T04:25:17;4.38;;;2.00;;
42134;SDS011;28312;43.460;11.810;2022-11-18T04:29:21;2.13;;;1.40;;
42134;SDS011;28312;43.460;11.810;2022-11-18T04:33:24;2.63;;;1.55;;
42134;SDS011;28312;43.460;11.810;2022-11-18T04:37:28;2.42;;;1.30;;
42134;SDS011;28312;43.460;11.810;2022-11-18T04:41:31;4.47;;;1.60;;
42134;SDS011;28312;43.460;11.810;2022-11-18T04:45:53;7.65;;;1.50;;
42134;SDS011;28312;43.460;11.810;2022-11-18T04:49:56;6.78;;;2.20;;
42134;SDS011;28312;43.460;11.810;2022-11-18T04:54:00;2.20;;;1.67;;
42134;SDS011;28312;43.460;11.810;2022-11-18T04:58:05;3.25;;;1.90;;
42134;SDS011;28312;43.460;11.810;2022-11-18T05:02:08;3.67;;;2.45;;
42134;SDS011;28312;43.460;11.810;2022-11-18T05:06:14;5.22;;;1.92;;
42134;SDS011;28312;43.460;11.810;2022-11-18T05:10:18;9.82;;;3.05;;
42134;SDS011;28312;43.460;11.810;2022-11-18T05:14:24;2.58;;;1.85;;
42134;SDS011;28312;43.460;11.810;2022-11-18T05:22:31;3.10;;;1.88;;
42134;SDS011;28312;43.460;11.810;2022-11-18T05:26:36;3.10;;;1.20;;
42134;SDS011;28312;43.460;11.810;2022-11-18T05:30:39;3.13;;;1.77;;
42134;SDS011;28312;43.460;11.810;2022-11-18T05:34:43;2.92;;;1.42;;
42134;SDS011;28312;43.460;11.810;2022-11-18T05:38:47;1.35;;;0.77;;
42134;SDS011;28312;43.460;11.810;2022-11-18T05:42:51;2.53;;;1.40;;
42134;SDS011;28312;43.460;11.810;2022-11-18T05:47:12;2.95;;;1.30;;
42134;SDS011;28312;43.460;11.810;2022-11-18T05:51:16;3.20;;;1.13;;
42134;SDS011;28312;43.460;11.810;2022-11-18T05:55:20;3.17;;;1.10;;
42134;SDS011;28312;43.460;11.810;2022-11-18T05:59:26;1.88;;;1.20;;
42134;SDS011;28312;43.460;11.810;2022-11-18T06:03:30;1.52;;;0.85;;
42134;SDS011;28312;43.460;11.810;2022-11-18T06:11:44;7.57;;;1.50;;
42134;SDS011;28312;43.460;11.810;2022-11-18T06:15:53;1.38;;;0.77;;
42134;SDS011;28312;43.460;11.810;2022-11-18T06:19:56;2.72;;;1.40;;
42134;SDS011;28312;43.460;11.810;2022-11-18T06:24:01;6.40;;;1.42;;
42134;SDS011;28312;43.460;11.810;2022-11-18T06:28:05;1.35;;;0.90;;
42134;SDS011;28312;43.460;11.810;2022-11-18T06:32:09;2.92;;;1.27;;
42134;SDS011;28312;43.460;11.810;2022-11-18T06:36:13;1.70;;;0.93;;
42134;SDS011;28312;43.460;11.810;2022-11-18T06:40:17;0.60;;;0.50;;
42134;SDS011;28312;43.460;11.810;2022-11-18T06:44:20;3.97;;;0.98;;
42134;SDS011;28312;43.460;11.810;2022-11-18T06:48:24;1.67;;;0.80;;
42134;SDS011;28312;43.460;11.810;2022-11-18T06:52:27;1.60;;;0.73;;
42134;SDS011;28312;43.460;11.810;2022-11-18T06:56:30;1.67;;;0.80;;
42134;SDS011;28312;43.460;11.810;2022-11-18T07:00:34;3.03;;;0.90;;
42134;SDS011;28312;43.460;11.810;2022-11-18T07:04:38;1.20;;;0.73;;
42134;SDS011;28312;43.460;11.810;2022-11-18T07:08:42;2.17;;;0.90;;
42134;SDS011;28312;43.460;11.810;2022-11-18T07:12:46;2.38;;;0.77;;
42134;SDS011;28312;43.460;11.810;2022-11-18T07:16:49;1.67;;;0.95;;
42134;SDS011;28312;43.460;11.810;2022-11-18T07:20:53;1.00;;;0.50;;
42134;SDS011;28312;43.460;11.810;2022-11-18T07:24:57;1.73;;;0.63;;
42134;SDS011;28312;43.460;11.810;2022-11-18T07:29:04;2.47;;;0.80;;
42134;SDS011;28312;43.460;11.810;2022-11-18T07:33:08;0.75;;;0.47;;
42134;SDS011;28312;43.460;11.810;2022-11-18T07:37:11;2.17;;;0.90;;
42134;SDS011;28312;43.460;11.810;2022-11-18T07:41:16;1.73;;;0.85;;
42134;SDS011;28312;43.460;11.810;2022-11-18T07:45:24;1.08;;;0.52;;
42134;SDS011;28312;43.460;11.810;2022-11-18T07:49:28;1.73;;;0.90;;
42134;SDS011;28312;43.460;11.810;2022-11-18T07:53:33;1.63;;;1.00;;
42134;SDS011;28312;43.460;11.810;2022-11-18T07:57:37;1.60;;;0.77;;
42134;SDS011;28312;43.460;11.810;2022-11-18T08:01:41;1.30;;;0.68;;
42134;SDS011;28312;43.460;11.810;2022-11-18T08:05:45;2.05;;;0.73;;
42134;SDS011;28312;43.460;11.810;2022-11-18T08:09:48;4.78;;;1.00;;
42134;SDS011;28312;43.460;11.810;2022-11-18T08:13:52;2.05;;;0.70;;
42134;SDS011;28312;43.460;11.810;2022-11-18T08:17:55;1.83;;;0.80;;
42134;SDS011;28312;43.460;11.810;2022-11-18T08:21:59;1.58;;;1.05;;
42134;SDS011;28312;43.460;11.810;2022-11-18T08:26:07;3.38;;;1.23;;
42134;SDS011;28312;43.460;11.810;2022-11-18T08:30:17;2.28;;;1.17;;
42134;SDS011;28312;43.460;11.810;2022-11-18T08:34:21;2.30;;;1.13;;
42134;SDS011;28312;43.460;11.810;2022-11-18T08:38:24;3.08;;;0.90;;
42134;SDS011;28312;43.460;11.810;2022-11-18T08:42:28;9.25;;;4.38;;
42134;SDS011;28312;43.460;11.810;2022-11-18T08:46:36;3.17;;;1.63;;
42134;SDS011;28312;43.460;11.810;2022-11-18T08:50:40;4.28;;;1.67;;
42134;SDS011;28312;43.460;11.810;2022-11-18T08:54:43;2.78;;;1.15;;
42134;SDS011;28312;43.460;11.810;2022-11-18T08:58:46;2.15;;;0.90;;
42134;SDS011;28312;43.460;11.810;2022-11-18T09:02:50;3.20;;;1.20;;
42134;SDS011;28312;43.460;11.810;2022-11-18T09:06:54;2.47;;;1.08;;
42134;SDS011;28312;43.460;11.810;2022-11-18T09:10:57;2.65;;;1.00;;
42134;SDS011;28312;43.460;11.810;2022-11-18T09:15:01;2.63;;;1.00;;
42134;SDS011;28312;43.460;11.810;2022-11-18T09:19:16;1.67;;;1.05;;
42134;SDS011;28312;43.460;11.810;2022-11-18T09:23:40;1.60;;;0.63;;
42134;SDS011;28312;43.460;11.810;2022-11-18T09:27:43;1.88;;;0.73;;
42134;SDS011;28312;43.460;11.810;2022-11-18T09:31:52;1.73;;;0.63;;
42134;SDS011;28312;43.460;11.810;2022-11-18T09:35:56;1.13;;;0.73;;
42134;SDS011;28312;43.460;11.810;2022-11-18T09:40:00;1.08;;;0.40;;
42134;SDS011;28312;43.460;11.810;2022-11-18T09:44:08;1.33;;;0.70;;
42134;SDS011;28312;43.460;11.810;2022-11-18T09:48:27;1.02;;;0.60;;
42134;SDS011;28312;43.460;11.810;2022-11-18T10:01:48;1.77;;;0.88;;
42134;SDS011;28312;43.460;11.810;2022-11-18T10:10:34;0.75;;;0.47;;
42134;SDS011;28312;43.460;11.810;2022-11-18T10:23:34;0.32;;;0.30;;
42134;SDS011;28312;43.460;11.810;2022-11-18T10:27:55;1.27;;;0.50;;
42134;SDS011;28312;43.460;11.810;2022-11-18T10:32:22;1.55;;;0.63;;
42134;SDS011;28312;43.460;11.810;2022-11-18T10:36:27;1.98;;;0.95;;
42134;SDS011;28312;43.460;11.810;2022-11-18T10:40:35;3.58;;;1.10;;
42134;SDS011;28312;43.460;11.810;2022-11-18T10:48:45;2.50;;;0.70;;
42134;SDS011;28312;43.460;11.810;2022-11-18T10:52:51;4.40;;;1.20;;
42134;SDS011;28312;43.460;11.810;2022-11-18T11:01:20;3.75;;;1.23;;
42134;SDS011;28312;43.460;11.810;2022-11-18T11:05:26;2.83;;;0.88;;
42134;SDS011;28312;43.460;11.810;2022-11-18T11:09:30;5.15;;;1.00;;
42134;SDS011;28312;43.460;11.810;2022-11-18T11:13:37;7.82;;;1.42;;
42134;SDS011;28312;43.460;11.810;2022-11-18T11:17:47;3.05;;;0.98;;
42134;SDS011;28312;43.460;11.810;2022-11-18T11:22:32;3.53;;;1.17;;
42134;SDS011;28312;43.460;11.810;2022-11-18T11:31:11;4.47;;;1.30;;
42134;SDS011;28312;43.460;11.810;2022-11-18T11:35:46;7.85;;;1.17;;
42134;SDS011;28312;43.460;11.810;2022-11-18T11:53:10;2.20;;;1.00;;
42134;SDS011;28312;43.460;11.810;2022-11-18T11:57:27;4.35;;;0.90;;
42134;SDS011;28312;43.460;11.810;2022-11-18T12:06:00;2.95;;;0.63;;
42134;SDS011;28312;43.460;11.810;2022-11-18T12:14:43;3.28;;;1.00;;
42134;SDS011;28312;43.460;11.810;2022-11-18T12:19:10;4.53;;;1.20;;
42134;SDS011;28312;43.460;11.810;2022-11-18T12:23:26;3.25;;;1.05;;
42134;SDS011;28312;43.460;11.810;2022-11-18T12:31:41;4.10;;;1.38;;
42134;SDS011;28312;43.460;11.810;2022-11-18T12:35:46;3.50;;;1.20;;
42134;SDS011;28312;43.460;11.810;2022-11-18T12:40:03;5.05;;;0.93;;
42134;SDS011;28312;43.460;11.810;2022-11-18T12:44:08;3.60;;;1.30;;
42134;SDS011;28312;43.460;11.810;2022-11-18T12:48:25;5.53;;;1.65;;
42134;SDS011;28312;43.460;11.810;2022-11-18T12:56:43;4.78;;;1.00;;
42134;SDS011;28312;43.460;11.810;2022-11-18T13:01:04;1.58;;;0.68;;
42134;SDS011;28312;43.460;11.810;2022-11-18T13:05:11;3.67;;;0.85;;
42134;SDS011;28312;43.460;11.810;2022-11-18T13:09:22;3.97;;;1.00;;
42134;SDS011;28312;43.460;11.810;2022-11-18T13:13:30;6.53;;;1.00;;
42134;SDS011;28312;43.460;11.810;2022-11-18T13:17:38;2.00;;;0.63;;
42134;SDS011;28312;43.460;11.810;2022-11-18T13:22:00;4.68;;;1.27;;
42134;SDS011;28312;43.460;11.810;2022-11-18T13:26:25;5.47;;;1.42;;
42134;SDS011;28312;43.460;11.810;2022-11-18T13:30:34;9.10;;;1.83;;
42134;SDS011;28312;43.460;11.810;2022-11-18T13:35:29;2.78;;;0.98;;
42134;SDS011;28312;43.460;11.810;2022-11-18T13:39:28;3.08;;;1.00;;
42134;SDS011;28312;43.460;11.810;2022-11-18T13:43:34;2.33;;;0.80;;
42134;SDS011;28312;43.460;11.810;2022-11-18T13:47:48;3.47;;;1.15;;
42134;SDS011;28312;43.460;11.810;2022-11-18T13:51:55;3.80;;;0.88;;
42134;SDS011;28312;43.460;11.810;2022-11-18T13:56:02;1.25;;;0.60;;
42134;SDS011;28312;43.460;11.810;2022-11-18T14:00:25;5.70;;;0.93;;
42134;SDS011;28312;43.460;11.810;2022-11-18T14:04:31;3.55;;;0.95;;
42134;SDS011;28312;43.460;11.810;2022-11-18T14:08:36;4.13;;;0.60;;
42134;SDS011;28312;43.460;11.810;2022-11-18T14:12:41;2.07;;;0.77;;
42134;SDS011;28312;43.460;11.810;2022-11-18T14:16:44;2.50;;;1.00;;
42134;SDS011;28312;43.460;11.810;2022-11-18T14:20:51;3.28;;;1.33;;
42134;SDS011;28312;43.460;11.810;2022-11-18T14:25:00;2.13;;;0.80;;
42134;SDS011;28312;43.460;11.810;2022-11-18T14:29:23;9.23;;;1.35;;
42134;SDS011;28312;43.460;11.810;2022-11-18T14:33:27;1.95;;;0.90;;
42134;SDS011;28312;43.460;11.810;2022-11-18T14:37:31;3.45;;;0.70;;
42134;SDS011;28312;43.460;11.810;2022-11-18T14:41:35;6.30;;;0.90;;
42134;SDS011;28312;43.460;11.810;2022-11-18T14:45:54;5.32;;;1.25;;
42134;SDS011;28312;43.460;11.810;2022-11-18T14:50:00;6.03;;;1.20;;
42134;SDS011;28312;43.460;11.810;2022-11-18T14:54:03;1.27;;;0.65;;
42134;SDS011;28312;43.460;11.810;2022-11-18T14:58:11;4.55;;;0.95;;
42134;SDS011;28312;43.460;11.810;2022-11-18T15:02:16;6.10;;;1.33;;
42134;SDS011;28312;43.460;11.810;2022-11-18T15:06:20;3.28;;;1.00;;
42134;SDS011;28312;43.460;11.810;2022-11-18T15:10:24;2.78;;;1.02;;
42134;SDS011;28312;43.460;11.810;2022-11-18T15:14:28;4.80;;;1.50;;
42134;SDS011;28312;43.460;11.810;2022-11-18T15:18:31;3.10;;;1.38;;
42134;SDS011;28312;43.460;11.810;2022-11-18T15:22:35;4.55;;;0.90;;
42134;SDS011;28312;43.460;11.810;2022-11-18T15:26:43;2.33;;;0.80;;
42134;SDS011;28312;43.460;11.810;2022-11-18T15:30:47;3.72;;;1.05;;
42134;SDS011;28312;43.460;11.810;2022-11-18T15:34:54;3.63;;;1.70;;
42134;SDS011;28312;43.460;11.810;2022-11-18T15:38:58;4.00;;;1.23;;
42134;SDS011;28312;43.460;11.810;2022-11-18T15:43:03;7.32;;;2.20;;
42134;SDS011;28312;43.460;11.810;2022-11-18T15:47:07;5.73;;;1.87;;
42134;SDS011;28312;43.460;11.810;2022-11-18T15:51:10;3.05;;;1.40;;
42134;SDS011;28312;43.460;11.810;2022-11-18T15:55:14;9.15;;;1.77;;
42134;SDS011;28312;43.460;11.810;2022-11-18T15:59:18;6.93;;;1.80;;
42134;SDS011;28312;43.460;11.810;2022-11-18T16:03:22;2.50;;;1.30;;
42134;SDS011;28312;43.460;11.810;2022-11-18T16:07:28;4.30;;;1.42;;
42134;SDS011;28312;43.460;11.810;2022-11-18T16:11:32;2.15;;;0.95;;
42134;SDS011;28312;43.460;11.810;2022-11-18T16:15:54;2.20;;;0.98;;
42134;SDS011;28312;43.460;11.810;2022-11-18T16:19:57;4.38;;;1.10;;
42134;SDS011;28312;43.460;11.810;2022-11-18T16:24:01;2.20;;;1.20;;
42134;SDS011;28312;43.460;11.810;2022-11-18T16:28:06;2.25;;;1.10;;
42134;SDS011;28312;43.460;11.810;2022-11-18T16:32:11;3.55;;;1.00;;
42134;SDS011;28312;43.460;11.810;2022-11-18T16:36:16;1.35;;;0.85;;
42134;SDS011;28312;43.460;11.810;2022-11-18T16:40:26;1.98;;;0.82;;
42134;SDS011;28312;43.460;11.810;2022-11-18T16:44:30;3.40;;;1.17;;
42134;SDS011;28312;43.460;11.810;2022-11-18T16:48:33;2.13;;;0.70;;
42134;SDS011;28312;43.460;11.810;2022-11-18T16:52:37;3.28;;;1.20;;
42134;SDS011;28312;43.460;11.810;2022-11-18T16:56:40;1.00;;;0.65;;
42134;SDS011;28312;43.460;11.810;2022-11-18T17:00:44;2.67;;;0.70;;
42134;SDS011;28312;43.460;11.810;2022-11-18T17:05:07;2.38;;;0.95;;
42134;SDS011;28312;43.460;11.810;2022-11-18T17:09:12;3.65;;;0.80;;
42134;SDS011;28312;43.460;11.810;2022-11-18T17:13:18;4.57;;;0.85;;
42134;SDS011;28312;43.460;11.810;2022-11-18T17:17:22;2.78;;;0.65;;
42134;SDS011;28312;43.460;11.810;2022-11-18T17:21:26;5.22;;;0.80;;
42134;SDS011;28312;43.460;11.810;2022-11-18T17:25:32;2.42;;;0.68;;
42134;SDS011;28312;43.460;11.810;2022-11-18T17:29:36;5.28;;;0.93;;
42134;SDS011;28312;43.460;11.810;2022-11-18T17:33:40;1.52;;;0.75;;
42134;SDS011;28312;43.460;11.810;2022-11-18T17:37:45;1.02;;;0.77;;
42134;SDS011;28312;43.460;11.810;2022-11-18T17:41:48;4.18;;;1.80;;
42134;SDS011;28312;43.460;11.810;2022-11-18T17:46:10;2.35;;;1.35;;
42134;SDS011;28312;43.460;11.810;2022-11-18T17:50:13;7.60;;;3.33;;
42134;SDS011;28312;43.460;11.810;2022-11-18T17:54:18;3.00;;;1.67;;
42134;SDS011;28312;43.460;11.810;2022-11-18T17:58:22;2.70;;;1.25;;
42134;SDS011;28312;43.460;11.810;2022-11-18T18:02:26;1.70;;;0.90;;
42134;SDS011;28312;43.460;11.810;2022-11-18T18:06:29;3.15;;;1.20;;
42134;SDS011;28312;43.460;11.810;2022-11-18T18:10:37;3.03;;;1.20;;
42134;SDS011;28312;43.460;11.810;2022-11-18T18:14:43;3.60;;;1.65;;
42134;SDS011;28312;43.460;11.810;2022-11-18T18:18:47;8.98;;;2.95;;
42134;SDS011;28312;43.460;11.810;2022-11-18T18:22:51;3.75;;;2.05;;
42134;SDS011;28312;43.460;11.810;2022-11-18T18:26:55;6.75;;;2.60;;
42134;SDS011;28312;43.460;11.810;2022-11-18T18:31:03;5.25;;;1.83;;
42134;SDS011;28312;43.460;11.810;2022-11-18T18:35:08;5.40;;;1.80;;
42134;SDS011;28312;43.460;11.810;2022-11-18T18:39:13;12.77;;;3.75;;
42134;SDS011;28312;43.460;11.810;2022-11-18T18:43:16;6.85;;;4.20;;
42134;SDS011;28312;43.460;11.810;2022-11-18T18:47:21;10.20;;;4.35;;
42134;SDS011;28312;43.460;11.810;2022-11-18T18:51:28;8.82;;;4.15;;
42134;SDS011;28312;43.460;11.810;2022-11-18T18:55:36;7.28;;;2.80;;
42134;SDS011;28312;43.460;11.810;2022-11-18T18:59:46;4.28;;;2.50;;
42134;SDS011;28312;43.460;11.810;2022-11-18T19:03:53;5.63;;;2.25;;
42134;SDS011;28312;43.460;11.810;2022-11-18T19:07:57;7.15;;;3.05;;
42134;SDS011;28312;43.460;11.810;2022-11-18T19:12:01;12.25;;;4.32;;
42134;SDS011;28312;43.460;11.810;2022-11-18T19:16:28;11.55;;;5.65;;
42134;SDS011;28312;43.460;11.810;2022-11-18T19:20:32;8.25;;;3.30;;
42134;SDS011;28312;43.460;11.810;2022-11-18T19:24:35;6.53;;;3.17;;
42134;SDS011;28312;43.460;11.810;2022-11-18T19:28:56;10.23;;;3.95;;
42134;SDS011;28312;43.460;11.810;2022-11-18T19:33:00;4.13;;;2.25;;
42134;SDS011;28312;43.460;11.810;2022-11-18T19:37:03;2.17;;;1.35;;
42134;SDS011;28312;43.460;11.810;2022-11-18T19:41:08;8.18;;;4.35;;
42134;SDS011;28312;43.460;11.810;2022-11-18T19:45:14;8.30;;;3.13;;
42134;SDS011;28312;43.460;11.810;2022-11-18T19:49:20;10.00;;;5.10;;
42134;SDS011;28312;43.460;11.810;2022-11-18T19:53:24;7.95;;;3.90;;
42134;SDS011;28312;43.460;11.810;2022-11-18T19:57:33;4.45;;;2.63;;
42134;SDS011;28312;43.460;11.810;2022-11-18T20:01:37;11.50;;;6.38;;
42134;SDS011;28312;43.460;11.810;2022-11-18T20:05:41;9.93;;;5.25;;
42134;SDS011;28312;43.460;11.810;2022-11-18T20:09:53;10.02;;;6.00;;
42134;SDS011;28312;43.460;11.810;2022-11-18T20:13:57;7.43;;;3.47;;
42134;SDS011;28312;43.460;11.810;2022-11-18T20:18:00;8.98;;;3.15;;
42134;SDS011;28312;43.460;11.810;2022-11-18T20:22:04;4.95;;;3.00;;
42134;SDS011;28312;43.460;11.810;2022-11-18T20:26:11;10.85;;;3.90;;
42134;SDS011;28312;43.460;11.810;2022-11-18T20:30:16;7.32;;;2.35;;
42134;SDS011;28312;43.460;11.810;2022-11-18T20:34:21;4.93;;;2.55;;
42134;SDS011;28312;43.460;11.810;2022-11-18T20:38:25;4.50;;;1.85;;
42134;SDS011;28312;43.460;11.810;2022-11-18T20:42:28;4.72;;;2.15;;
42134;SDS011;28312;43.460;11.810;2022-11-18T20:46:54;7.05;;;2.75;;
42134;SDS011;28312;43.460;11.810;2022-11-18T20:51:02;5.43;;;2.85;;
42134;SDS011;28312;43.460;11.810;2022-11-18T20:55:09;15.50;;;5.72;;
42134;SDS011;28312;43.460;11.810;2022-11-18T20:59:13;8.57;;;3.92;;
42134;SDS011;28312;43.460;11.810;2022-11-18T21:03:17;8.43;;;4.85;;
42134;SDS011;28312;43.460;11.810;2022-11-18T21:07:23;8.15;;;3.45;;
42134;SDS011;28312;43.460;11.810;2022-11-18T21:11:26;7.85;;;3.63;;
42134;SDS011;28312;43.460;11.810;2022-11-18T21:15:30;10.77;;;4.93;;
42134;SDS011;28312;43.460;11.810;2022-11-18T21:19:34;7.68;;;3.70;;
42134;SDS011;28312;43.460;11.810;2022-11-18T21:23:38;4.05;;;2.25;;
42134;SDS011;28312;43.460;11.810;2022-11-18T21:27:42;5.20;;;2.28;;
42134;SDS011;28312;43.460;11.810;2022-11-18T21:31:45;3.28;;;1.85;;
42134;SDS011;28312;43.460;11.810;2022-11-18T21:35:49;3.83;;;2.10;;
42134;SDS011;28312;43.460;11.810;2022-11-18T21:39:53;5.15;;;3.58;;
42134;SDS011;28312;43.460;11.810;2022-11-18T21:43:56;4.78;;;2.88;;
42134;SDS011;28312;43.460;11.810;2022-11-18T21:48:07;6.93;;;3.97;;
42134;SDS011;28312;43.460;11.810;2022-11-18T21:52:12;3.03;;;1.92;;
42134;SDS011;28312;43.460;11.810;2022-11-18T21:56:17;3.53;;;2.17;;
42134;SDS011;28312;43.460;11.810;2022-11-18T22:00:22;6.70;;;3.08;;
42134;SDS011;28312;43.460;11.810;2022-11-18T22:04:26;8.02;;;2.97;;
42134;SDS011;28312;43.460;11.810;2022-11-18T22:08:48;4.32;;;2.33;;
42134;SDS011;28312;43.460;11.810;2022-11-18T22:12:52;3.90;;;2.28;;
42134;SDS011;28312;43.460;11.810;2022-11-18T22:16:56;2.97;;;1.63;;
42134;SDS011;28312;43.460;11.810;2022-11-18T22:21:00;4.75;;;2.00;;
42134;SDS011;28312;43.460;11.810;2022-11-18T22:25:05;4.63;;;2.13;;
42134;SDS011;28312;43.460;11.810;2022-11-18T22:29:08;4.80;;;2.75;;
42134;SDS011;28312;43.460;11.810;2022-11-18T22:33:12;6.60;;;3.28;;
42134;SDS011;28312;43.460;11.810;2022-11-18T22:37:15;6.22;;;2.80;;
42134;SDS011;28312;43.460;11.810;2022-11-18T22:41:25;5.97;;;2.30;;
42134;SDS011;28312;43.460;11.810;2022-11-18T22:45:48;3.33;;;1.88;;
42134;SDS011;28312;43.460;11.810;2022-11-18T22:49:51;4.95;;;2.25;;
42134;SDS011;28312;43.460;11.810;2022-11-18T22:53:58;4.53;;;2.40;;
42134;SDS011;28312;43.460;11.810;2022-11-18T22:58:21;6.40;;;3.33;;
42134;SDS011;28312;43.460;11.810;2022-11-18T23:02:25;4.70;;;2.38;;
42134;SDS011;28312;43.460;11.810;2022-11-18T23:06:29;8.65;;;2.83;;
42134;SDS011;28312;43.460;11.810;2022-11-18T23:10:33;4.70;;;2.20;;
42134;SDS011;28312;43.460;11.810;2022-11-18T23:14:36;3.38;;;1.45;;
42134;SDS011;28312;43.460;11.810;2022-11-18T23:18:40;5.07;;;2.63;;
42134;SDS011;28312;43.460;11.810;2022-11-18T23:22:44;6.57;;;2.33;;
42134;SDS011;28312;43.460;11.810;2022-11-18T23:26:47;6.35;;;2.13;;
42134;SDS011;28312;43.460;11.810;2022-11-18T23:30:51;6.07;;;2.33;;
42134;SDS011;28312;43.460;11.810;2022-11-18T23:34:55;5.00;;;1.92;;
42134;SDS011;28312;43.460;11.810;2022-11-18T23:38:58;3.78;;;1.85;;
42134;SDS011;28312;43.460;11.810;2022-11-18T23:43:02;3.60;;;1.83;;
42134;SDS011;28312;43.460;11.810;2022-11-18T23:47:05;3.67;;;1.63;;
42134;SDS011;28312;43.460;11.810;2022-11-18T23:55:21;3.30;;;1.70;;
42134;SDS011;28312;43.460;11.810;2022-11-18T23:59:25;1.92;;;1.23;;
